Portada
METAR-TAF:

METAR-TAF

Aeroports :

Luang Prabang, Laos

latitud: 19-53N, longitud: 102-08E, altitud: 305 m

Observació

L'informe es va fer fa 1 hora i 4 minuts, a les 04:00 UTC
Vent 2 kt del Sud
Temperatura 30°C
Humitat 62%
Pressió 1010 hPa
Visibilitat 10 km o més
Núvols disperses a una alçada de 2000 ft
Núvols disperses a una alçada de 6000 ft
Cel ennuvolat a una alçada de 8000 ft

METAR: VLLB 220400Z 18002KT 9999 SCT020 SCT060 BKN080 30/22 Q1010 NOSIG

Hora: 12:04 (05:04 UTC)

Pronòstic

L'informe es va fer fa 6 hores i 4 minuts, a les 23:00 UTC
Pronòstic vàlid del 22 a les 00 UTC al 22 a les 24 UTC
Vent 4 kt del Oest/Sud-Oest
Visibilitat 10 km o més
Núvols disperses a una alçada de 2000 ft
Núvols disperses a una alçada de 6000 ft
Cel ennuvolat a una alçada de 8300 ft

TAF: VLLB 212300Z 2200/2224 24004KT 9999 SCT020 SCT060 BKN083

Observacions i pronòstics meteorològics de més de 4000 aeroports (METAR i TAF).

Les estacions disponibles són els punts grocs i vermells al mapa.

Posi el ratolí al punt desitjat per veure el nom de l'estació.

Feu clic per veure les observacions i els pronòstics meteorològics.

Per canviar el mapa: feu clic els botons verds amb una creu de color negre per apropar; al botó verd amb un guió per allunyar la imatge; o en les fletxes verdes per a mapes adjacents.


METAR-TAF: